createdAt,value
2019-05-18T00:02:26.900Z,10.40
2019-05-18T00:04:58.477Z,10.16
2019-05-18T00:07:28.873Z,10.02
2019-05-18T00:09:59.379Z,10.00
2019-05-18T00:12:29.767Z,10.02
2019-05-18T00:15:00.178Z,9.96
2019-05-18T00:17:31.677Z,9.92
2019-05-18T00:20:02.979Z,9.88
2019-05-18T00:22:33.709Z,9.90
2019-05-18T00:25:05.291Z,9.93
2019-05-18T00:27:35.714Z,9.93
2019-05-18T00:30:06.921Z,10.00
2019-05-18T00:32:37.755Z,10.05
2019-05-18T00:35:09.017Z,9.99
2019-05-18T00:37:40.153Z,9.99
2019-05-18T00:40:11.078Z,9.86
2019-05-18T00:42:41.480Z,9.86
2019-05-18T00:45:11.994Z,9.84
2019-05-18T00:47:42.584Z,9.82
2019-05-18T00:50:14.389Z,9.72
2019-05-18T00:52:44.922Z,9.82
2019-05-18T00:55:16.417Z,9.92
2019-05-18T00:57:47.037Z,9.87
2019-05-18T01:00:19.272Z,9.88
2019-05-18T01:02:49.681Z,9.87
2019-05-18T01:05:20.412Z,9.93
2019-05-18T01:07:51.224Z,9.84
2019-05-18T01:10:21.739Z,9.70
2019-05-18T01:12:52.243Z,9.58
2019-05-18T01:15:23.253Z,9.58
2019-05-18T01:17:57.219Z,9.59
2019-05-18T01:20:26.386Z,9.60
2019-05-18T01:22:57.059Z,9.48
2019-05-18T01:25:27.836Z,9.04
2019-05-18T01:27:58.618Z,9.33
2019-05-18T01:30:28.937Z,9.27
2019-05-18T01:32:59.368Z,9.28
2019-05-18T01:35:30.017Z,9.30
2019-05-18T01:38:00.440Z,9.37
2019-05-18T01:40:30.885Z,9.39
2019-05-18T01:43:01.803Z,9.56
2019-05-18T01:45:32.140Z,9.48
2019-05-18T01:48:13.129Z,9.38
2019-05-18T01:50:35.617Z,9.30
2019-05-18T01:53:06.090Z,9.08
2019-05-18T01:55:36.803Z,9.10
2019-05-18T01:58:07.218Z,9.34
2019-05-18T02:00:37.593Z,9.68
2019-05-18T02:03:08.250Z,9.79
2019-05-18T02:05:38.580Z,9.75
2019-05-18T02:08:08.942Z,9.86
2019-05-18T02:10:39.463Z,9.97
2019-05-18T02:13:09.889Z,10.02
2019-05-18T02:15:40.188Z,9.81
2019-05-18T02:18:10.711Z,9.81
2019-05-18T02:20:42.479Z,9.92
2019-05-18T02:23:12.783Z,9.95
2019-05-18T02:25:43.459Z,9.95
2019-05-18T02:28:13.971Z,9.92
2019-05-18T02:30:44.315Z,9.78
2019-05-18T02:33:14.752Z,9.70
2019-05-18T02:35:45.606Z,9.62
2019-05-18T02:38:19.387Z,9.79
2019-05-18T02:40:49.905Z,9.79
2019-05-18T02:43:20.630Z,9.35
2019-05-18T02:45:51.013Z,9.21
2019-05-18T02:48:21.301Z,9.65
2019-05-18T02:50:52.119Z,9.82
2019-05-18T02:53:22.692Z,9.86
2019-05-18T02:55:53.415Z,9.73
2019-05-18T02:58:24.685Z,9.68
2019-05-18T03:00:55.135Z,9.53
2019-05-18T03:03:25.682Z,9.00
2019-05-18T03:05:56.234Z,9.25
2019-05-18T03:08:26.634Z,9.12
2019-05-18T03:10:57.618Z,9.00
2019-05-18T03:13:27.946Z,9.36
2019-05-18T03:15:58.239Z,9.59
2019-05-18T03:18:29.179Z,9.70
2019-05-18T03:21:00.121Z,9.88
2019-05-18T03:23:30.652Z,9.72
2019-05-18T03:26:00.958Z,9.66
2019-05-18T03:28:31.321Z,9.56
2019-05-18T03:31:02.103Z,9.76
2019-05-18T03:33:32.790Z,9.74
2019-05-18T03:36:03.083Z,9.79
2019-05-18T03:38:33.813Z,9.90
2019-05-18T03:41:04.299Z,9.90
2019-05-18T03:43:34.644Z,10.05
2019-05-18T03:46:05.048Z,10.12
2019-05-18T03:48:35.695Z,10.23
2019-05-18T03:51:06.556Z,10.17
2019-05-18T03:53:36.998Z,10.13
2019-05-18T03:56:07.366Z,10.11
2019-05-18T03:58:38.054Z,10.04
2019-05-18T04:01:08.849Z,9.89
2019-05-18T04:03:39.390Z,9.91
2019-05-18T04:06:10.202Z,10.15
2019-05-18T04:08:41.017Z,10.08
2019-05-18T04:11:11.349Z,9.67
2019-05-18T04:13:41.737Z,9.94
2019-05-18T04:16:12.243Z,10.05
2019-05-18T04:18:42.554Z,9.98
2019-05-18T04:21:13.079Z,10.02
2019-05-18T04:23:43.598Z,10.26
2019-05-18T04:26:13.969Z,10.20
2019-05-18T04:28:44.667Z,10.48
2019-05-18T04:31:15.131Z,10.49
2019-05-18T04:33:45.644Z,10.42
2019-05-18T04:36:16.113Z,10.48
2019-05-18T04:38:46.496Z,10.49
2019-05-18T04:41:16.941Z,10.66
2019-05-18T04:43:47.571Z,10.55
2019-05-18T04:46:18.006Z,10.58
2019-05-18T04:48:48.332Z,10.85
2019-05-18T04:51:20.099Z,11.15
2019-05-18T04:53:50.624Z,11.30
2019-05-18T04:56:20.986Z,11.07
2019-05-18T04:58:51.771Z,11.39
2019-05-18T05:01:22.107Z,11.48
2019-05-18T05:03:52.554Z,11.65
2019-05-18T05:06:22.880Z,11.66
2019-05-18T05:08:53.189Z,11.85
2019-05-18T05:11:24.018Z,11.90
2019-05-18T05:13:54.561Z,12.13
2019-05-18T05:16:24.877Z,11.87
2019-05-18T05:18:55.393Z,11.69
2019-05-18T05:21:26.238Z,12.10
2019-05-18T05:23:56.633Z,12.18
2019-05-18T05:26:27.410Z,11.73
2019-05-18T05:28:58.143Z,11.48
2019-05-18T05:31:28.467Z,11.71
2019-05-18T05:33:58.840Z,11.87
2019-05-18T05:36:29.547Z,12.13
2019-05-18T05:39:00.861Z,12.26
2019-05-18T05:41:31.446Z,12.63
2019-05-18T05:44:01.853Z,12.86
2019-05-18T05:46:32.423Z,12.96
2019-05-18T05:49:03.264Z,13.04
2019-05-18T05:51:33.560Z,13.47
2019-05-18T05:54:04.196Z,13.31
2019-05-18T05:56:34.891Z,13.63
2019-05-18T05:59:05.264Z,13.94
2019-05-18T06:01:36.774Z,14.14
2019-05-18T06:04:07.404Z,13.85
2019-05-18T06:06:37.964Z,13.93
2019-05-18T06:09:09.139Z,14.18
2019-05-18T06:11:39.497Z,14.49
2019-05-18T06:14:10.043Z,14.70
2019-05-18T06:16:40.775Z,14.69
2019-05-18T06:19:11.194Z,14.91
2019-05-18T06:21:41.561Z,15.06
2019-05-18T06:24:12.252Z,15.27
2019-05-18T06:26:42.668Z,15.15
2019-05-18T06:29:13.002Z,15.31
2019-05-18T06:31:43.419Z,15.54
2019-05-18T06:34:13.811Z,15.69
2019-05-18T06:36:45.060Z,15.79
2019-05-18T06:39:15.735Z,15.89
2019-05-18T06:41:46.307Z,15.80
2019-05-18T06:44:16.752Z,15.91
2019-05-18T06:46:47.426Z,16.09
2019-05-18T06:49:18.207Z,16.12
2019-05-18T06:51:48.627Z,16.05
2019-05-18T06:54:19.268Z,16.10
2019-05-18T06:56:51.173Z,16.22
2019-05-18T06:59:21.803Z,16.38
2019-05-18T07:01:52.288Z,16.37
2019-05-18T07:04:22.729Z,16.35
2019-05-18T07:06:53.035Z,16.52
2019-05-18T07:09:23.741Z,16.70
2019-05-18T07:11:56.112Z,16.58
2019-05-18T07:14:27.392Z,16.78
2019-05-18T07:16:58.058Z,16.58
2019-05-18T07:19:28.480Z,16.56
2019-05-18T07:21:58.885Z,16.58
2019-05-18T07:24:29.476Z,16.22
2019-05-18T07:26:59.840Z,16.33
2019-05-18T07:29:30.314Z,16.32
2019-05-18T07:32:01.065Z,16.14
2019-05-18T07:34:31.410Z,16.53
2019-05-18T07:37:01.703Z,16.25
2019-05-18T07:39:35.846Z,16.34
2019-05-18T07:42:04.557Z,16.36
2019-05-18T07:44:35.150Z,16.49
2019-05-18T07:47:05.458Z,16.57
2019-05-18T07:49:35.792Z,16.49
2019-05-18T07:52:06.632Z,16.71
2019-05-18T07:54:37.246Z,16.96
2019-05-18T07:57:07.565Z,16.87
2019-05-18T07:59:38.334Z,16.96
2019-05-18T08:02:08.794Z,16.88
2019-05-18T08:04:39.842Z,16.97
2019-05-18T08:07:10.790Z,16.95
2019-05-18T08:09:41.409Z,17.21
2019-05-18T08:12:11.822Z,17.19
2019-05-18T08:14:42.362Z,17.43
2019-05-18T08:17:12.746Z,17.45
2019-05-18T08:19:43.497Z,17.39
2019-05-18T08:22:14.165Z,17.40
2019-05-18T08:24:44.525Z,17.40
2019-05-18T08:27:15.239Z,17.31
2019-05-18T08:29:45.684Z,17.35
2019-05-18T08:32:16.964Z,17.49
2019-05-18T08:34:47.389Z,17.49
2019-05-18T08:37:17.992Z,17.62
2019-05-18T08:39:49.297Z,17.62
2019-05-18T08:42:19.849Z,17.78
2019-05-18T08:44:50.342Z,17.90
2019-05-18T08:47:21.140Z,18.15
2019-05-18T08:49:51.945Z,18.45
2019-05-18T08:52:23.427Z,18.52
2019-05-18T08:54:53.897Z,18.85
2019-05-18T08:57:24.682Z,18.80
2019-05-18T08:59:54.977Z,18.46
2019-05-18T09:02:25.396Z,18.83
2019-05-18T09:04:55.798Z,18.89
2019-05-18T09:07:26.262Z,18.90
2019-05-18T09:09:56.612Z,18.97
2019-05-18T09:12:27.048Z,19.05
2019-05-18T09:14:57.698Z,19.21
2019-05-18T09:17:28.361Z,19.24
2019-05-18T09:19:58.661Z,18.87
2019-05-18T09:22:29.032Z,19.09
2019-05-18T09:24:59.827Z,19.53
2019-05-18T09:27:30.296Z,19.84
2019-05-18T09:30:00.686Z,19.80
2019-05-18T09:32:31.436Z,20.01
2019-05-18T09:35:01.843Z,20.18
2019-05-18T09:37:32.700Z,20.26
2019-05-18T09:40:03.519Z,20.43
2019-05-18T09:42:34.153Z,19.69
2019-05-18T09:45:04.999Z,19.82
2019-05-18T09:47:35.912Z,19.85
2019-05-18T09:50:06.709Z,20.39
2019-05-18T09:52:46.203Z,20.33
2019-05-18T09:55:10.861Z,20.65
2019-05-18T09:57:41.256Z,20.92
2019-05-18T10:00:12.505Z,21.41
2019-05-18T10:02:43.012Z,21.81
2019-05-18T10:05:13.819Z,22.28
2019-05-18T10:07:44.676Z,22.75
2019-05-18T10:10:15.709Z,23.33
2019-05-18T10:12:46.249Z,23.32
2019-05-18T10:15:16.943Z,23.29
2019-05-18T10:17:47.555Z,22.82
2019-05-18T10:20:17.949Z,23.02
2019-05-18T10:22:59.224Z,23.45
2019-05-18T10:25:20.614Z,23.65
2019-05-18T10:27:51.389Z,23.59
2019-05-18T10:30:22.117Z,23.66
2019-05-18T10:32:52.444Z,24.17
2019-05-18T10:35:22.969Z,24.46
2019-05-18T10:37:53.805Z,25.29
2019-05-18T10:40:24.107Z,25.66
2019-05-18T10:42:54.577Z,25.82
2019-05-18T10:45:25.446Z,26.24
2019-05-18T10:47:55.957Z,26.83
2019-05-18T10:50:26.322Z,27.46
2019-05-18T10:52:57.250Z,27.64
2019-05-18T10:55:27.779Z,27.86
2019-05-18T10:57:58.207Z,27.16
2019-05-18T11:00:29.059Z,26.29
2019-05-18T11:02:59.553Z,24.91
2019-05-18T11:05:29.904Z,26.78
2019-05-18T11:08:00.596Z,27.42
2019-05-18T11:10:31.410Z,27.33
2019-05-18T11:13:01.823Z,27.74
2019-05-18T11:15:32.382Z,27.71
2019-05-18T11:18:03.169Z,28.04
2019-05-18T11:20:33.521Z,28.09
2019-05-18T11:23:03.928Z,28.15
2019-05-18T11:25:34.505Z,28.79
2019-05-18T11:28:04.905Z,29.37
2019-05-18T11:30:35.394Z,29.69
2019-05-18T11:33:05.725Z,29.94
2019-05-18T11:35:36.325Z,30.25
2019-05-18T11:38:06.847Z,30.76
2019-05-18T11:40:37.200Z,30.64
2019-05-18T11:43:07.601Z,30.60
2019-05-18T11:45:38.319Z,30.77
2019-05-18T11:48:08.755Z,30.91
2019-05-18T11:50:39.097Z,31.66
2019-05-18T11:53:09.633Z,31.04
2019-05-18T11:55:40.127Z,30.94
2019-05-18T11:58:10.557Z,30.66
2019-05-18T12:00:40.854Z,30.47
2019-05-18T12:03:11.180Z,30.86
2019-05-18T12:05:42.001Z,29.19
2019-05-18T12:08:12.403Z,29.89
2019-05-18T12:10:42.744Z,29.88
2019-05-18T12:13:13.624Z,30.56
2019-05-18T12:15:44.268Z,30.32
2019-05-18T12:18:14.795Z,30.21
2019-05-18T12:20:45.581Z,29.29
2019-05-18T12:23:16.112Z,30.13
2019-05-18T12:25:46.422Z,30.54
2019-05-18T12:28:17.968Z,30.73
2019-05-18T12:30:48.260Z,31.22
2019-05-18T12:33:19.109Z,31.52
2019-05-18T12:35:49.642Z,29.62
2019-05-18T12:38:19.953Z,28.71
2019-05-18T12:40:50.596Z,28.35
2019-05-18T12:43:21.140Z,28.42
2019-05-18T12:45:51.490Z,27.31
2019-05-18T12:48:23.280Z,28.13
2019-05-18T12:50:54.027Z,27.90
2019-05-18T12:53:24.420Z,28.19
2019-05-18T12:55:54.962Z,27.95
2019-05-18T12:58:25.706Z,27.29
2019-05-18T13:00:56.191Z,27.63
2019-05-18T13:03:26.597Z,27.00
2019-05-18T13:05:56.953Z,27.42
2019-05-18T13:08:27.707Z,27.68
2019-05-18T13:10:58.454Z,27.89
2019-05-18T13:13:28.885Z,28.27
2019-05-18T13:15:59.445Z,27.89
2019-05-18T13:18:30.116Z,27.60
2019-05-18T13:21:00.588Z,27.56
2019-05-18T13:23:30.968Z,27.85
2019-05-18T13:26:01.386Z,28.11
2019-05-18T13:28:31.721Z,28.93
2019-05-18T13:31:02.022Z,27.94
2019-05-18T13:33:32.475Z,29.60
2019-05-18T13:36:02.937Z,28.85
2019-05-18T13:38:33.671Z,29.29
2019-05-18T13:41:04.151Z,29.66
2019-05-18T13:43:34.518Z,29.34
2019-05-18T13:46:05.290Z,29.77
2019-05-18T13:48:35.612Z,29.30
2019-05-18T13:51:05.973Z,28.16
2019-05-18T13:53:36.583Z,29.18
2019-05-18T13:56:06.914Z,31.13
2019-05-18T13:58:37.245Z,30.82
2019-05-18T14:01:07.685Z,30.79
2019-05-18T14:03:38.293Z,30.23
2019-05-18T14:06:08.823Z,30.40
2019-05-18T14:08:39.173Z,31.15
2019-05-18T14:11:09.474Z,31.57
2019-05-18T14:13:40.205Z,31.68
2019-05-18T14:16:10.721Z,32.08
2019-05-18T14:18:41.094Z,31.07
2019-05-18T14:21:11.933Z,31.43
2019-05-18T14:23:42.678Z,31.79
2019-05-18T14:26:13.052Z,31.52
2019-05-18T14:28:43.458Z,29.50
2019-05-18T14:31:14.294Z,30.33
2019-05-18T14:33:44.735Z,31.51
2019-05-18T14:36:15.358Z,31.19
2019-05-18T14:38:45.783Z,31.07
2019-05-18T14:41:16.581Z,30.91
2019-05-18T14:43:47.156Z,30.89
2019-05-18T14:46:17.527Z,32.04
2019-05-18T14:48:48.211Z,32.32
2019-05-18T14:51:19.090Z,31.89
2019-05-18T14:53:49.424Z,31.21
2019-05-18T14:56:19.839Z,31.24
2019-05-18T14:58:50.268Z,30.83
2019-05-18T15:01:20.568Z,31.48
2019-05-18T15:03:51.016Z,32.33
2019-05-18T15:06:21.699Z,32.61
2019-05-18T15:08:52.028Z,33.23
2019-05-18T15:11:22.362Z,33.69
2019-05-18T15:13:53.136Z,33.59
2019-05-18T15:16:23.623Z,33.50
2019-05-18T15:18:54.111Z,33.04
2019-05-18T15:21:24.780Z,34.04
2019-05-18T15:23:55.253Z,34.65
2019-05-18T15:26:25.588Z,35.23
2019-05-18T15:28:56.024Z,35.79
2019-05-18T15:31:26.665Z,36.02
2019-05-18T15:33:57.140Z,36.88
2019-05-18T15:36:27.659Z,36.45
2019-05-18T15:38:58.403Z,36.81
2019-05-18T15:41:28.699Z,37.30
2019-05-18T15:43:59.319Z,37.48
2019-05-18T15:46:29.664Z,37.56
2019-05-18T15:49:00.517Z,36.34
2019-05-18T15:51:31.403Z,36.34
2019-05-18T15:54:01.777Z,37.32
2019-05-18T15:56:32.412Z,36.33
2019-05-18T15:59:03.217Z,35.17
2019-05-18T16:01:33.520Z,35.93
2019-05-18T16:04:06.567Z,36.30
2019-05-18T16:06:36.636Z,36.06
2019-05-18T16:09:08.034Z,36.69
2019-05-18T16:11:38.337Z,36.92
2019-05-18T16:14:09.276Z,36.90
2019-05-18T16:16:40.817Z,36.38
2019-05-18T16:19:11.426Z,36.89
2019-05-18T16:21:41.784Z,37.23
2019-05-18T16:24:12.465Z,37.48
2019-05-18T16:26:43.007Z,37.71
2019-05-18T16:29:13.331Z,38.01
2019-05-18T16:31:43.742Z,37.51
2019-05-18T16:34:14.452Z,37.86
2019-05-18T16:36:45.013Z,38.11
2019-05-18T16:39:15.341Z,37.78
2019-05-18T16:41:46.240Z,36.41
2019-05-18T16:44:16.831Z,37.38
2019-05-18T16:46:47.293Z,37.37
2019-05-18T16:49:17.769Z,37.38
2019-05-18T16:51:48.161Z,36.57
2019-05-18T16:54:18.935Z,37.18
2019-05-18T16:56:49.260Z,37.28
2019-05-18T16:59:19.605Z,37.24
2019-05-18T17:01:50.411Z,37.20
2019-05-18T17:04:21.086Z,36.86
2019-05-18T17:06:51.451Z,36.11
2019-05-18T17:09:22.206Z,36.44
2019-05-18T17:11:53.105Z,36.25
2019-05-18T17:14:23.479Z,35.95
2019-05-18T17:16:53.861Z,35.50
2019-05-18T17:19:24.237Z,35.45
2019-05-18T17:21:54.752Z,35.41
2019-05-18T17:24:25.163Z,35.32
2019-05-18T17:26:55.560Z,34.44
2019-05-18T17:29:26.337Z,31.75
2019-05-18T17:31:57.040Z,31.37
2019-05-18T17:34:27.389Z,31.82
2019-05-18T17:36:57.855Z,32.00
2019-05-18T17:39:28.668Z,31.39
2019-05-18T17:41:58.970Z,27.53
2019-05-18T17:44:29.441Z,26.38
2019-05-18T17:47:00.083Z,26.03
2019-05-18T17:49:30.462Z,26.17
2019-05-18T17:52:01.136Z,24.80
2019-05-18T17:54:31.496Z,24.00
2019-05-18T17:57:08.536Z,23.77
2019-05-18T17:59:34.153Z,23.02
2019-05-18T18:02:04.681Z,21.78
2019-05-18T18:04:36.294Z,21.83
2019-05-18T18:07:06.982Z,21.18
2019-05-18T18:09:37.362Z,20.86
2019-05-18T18:12:07.826Z,20.79
2019-05-18T18:14:38.665Z,20.16
2019-05-18T18:17:09.354Z,20.15
2019-05-18T18:19:40.745Z,19.88
2019-05-18T18:22:11.717Z,20.06
2019-05-18T18:24:42.025Z,20.05
2019-05-18T18:27:24.927Z,20.12
2019-05-18T18:29:45.310Z,20.07
2019-05-18T18:32:15.767Z,19.80
2019-05-18T18:34:46.400Z,19.86
2019-05-18T18:37:16.875Z,19.85
2019-05-18T18:39:47.509Z,19.63
2019-05-18T18:42:19.538Z,19.84
2019-05-18T18:44:50.075Z,19.93
2019-05-18T18:47:20.374Z,20.17
2019-05-18T18:49:51.070Z,20.20
2019-05-18T18:52:21.455Z,20.35
2019-05-18T18:54:51.861Z,20.51
2019-05-18T18:57:22.179Z,20.55
2019-05-18T18:59:52.595Z,20.64
2019-05-18T19:02:24.506Z,20.72
2019-05-18T19:04:55.072Z,20.80
2019-05-18T19:07:25.415Z,20.85
2019-05-18T19:09:56.116Z,20.83
2019-05-18T19:12:26.796Z,20.89
2019-05-18T19:14:57.147Z,20.89
2019-05-18T19:17:27.714Z,21.06
2019-05-18T19:19:58.461Z,20.88
2019-05-18T19:22:28.758Z,20.83
2019-05-18T19:24:59.178Z,20.82
2019-05-18T19:27:29.568Z,20.11
2019-05-18T19:29:59.917Z,20.68
2019-05-18T19:32:30.240Z,20.66
2019-05-18T19:35:00.979Z,20.71
2019-05-18T19:37:31.432Z,20.58
2019-05-18T19:40:01.846Z,20.61
2019-05-18T19:42:32.855Z,18.61
2019-05-18T19:45:03.591Z,20.56
2019-05-18T19:47:33.866Z,20.60
2019-05-18T19:50:04.961Z,20.27
2019-05-18T19:52:35.472Z,20.41
2019-05-18T19:55:05.931Z,20.31
2019-05-18T19:57:36.687Z,20.47
2019-05-18T20:00:07.050Z,20.34
2019-05-18T20:02:39.158Z,20.34
2019-05-18T20:05:10.045Z,20.53
2019-05-18T20:07:40.383Z,20.71
2019-05-18T20:10:12.498Z,20.79
2019-05-18T20:12:43.267Z,20.80
2019-05-18T20:15:14.797Z,20.79
2019-05-18T20:17:45.510Z,20.62
2019-05-18T20:20:16.495Z,20.27
2019-05-18T20:22:46.826Z,20.49
2019-05-18T20:25:17.264Z,20.51
2019-05-18T20:27:47.804Z,20.23
2019-05-18T20:30:18.341Z,19.90
2019-05-18T20:32:49.027Z,20.07
2019-05-18T20:35:19.395Z,20.05
2019-05-18T20:37:49.878Z,19.79
2019-05-18T20:40:20.740Z,19.63
2019-05-18T20:42:51.208Z,19.64
2019-05-18T20:45:21.789Z,19.37
2019-05-18T20:47:52.578Z,19.11
2019-05-18T20:50:22.949Z,19.37
2019-05-18T20:52:53.337Z,19.34
2019-05-18T20:55:24.166Z,19.29
2019-05-18T20:57:54.540Z,19.14
2019-05-18T21:00:24.877Z,18.57
2019-05-18T21:02:55.586Z,17.96
2019-05-18T21:05:26.428Z,18.70
2019-05-18T21:07:57.132Z,17.93
2019-05-18T21:10:27.460Z,17.34
2019-05-18T21:12:57.876Z,18.06
2019-05-18T21:15:28.776Z,18.03
2019-05-18T21:17:59.089Z,17.83
2019-05-18T21:20:29.434Z,17.83
2019-05-18T21:23:00.245Z,17.48
2019-05-18T21:25:30.604Z,17.48
2019-05-18T21:28:00.933Z,17.30
2019-05-18T21:30:31.746Z,17.55
2019-05-18T21:33:02.318Z,17.51
2019-05-18T21:35:32.730Z,17.43
2019-05-18T21:38:03.516Z,17.43
2019-05-18T21:40:34.251Z,17.31
2019-05-18T21:43:04.577Z,16.82
2019-05-18T21:45:35.125Z,16.94
2019-05-18T21:48:05.725Z,17.53
2019-05-18T21:50:36.099Z,17.50
2019-05-18T21:53:06.444Z,16.91
2019-05-18T21:55:36.948Z,17.01
2019-05-18T21:58:07.284Z,17.53
2019-05-18T22:00:37.660Z,17.98
2019-05-18T22:03:10.082Z,16.87
2019-05-18T22:05:40.775Z,16.87
2019-05-18T22:08:11.375Z,16.78
2019-05-18T22:10:41.721Z,16.78
2019-05-18T22:13:12.132Z,17.02
2019-05-18T22:15:43.009Z,17.09
2019-05-18T22:18:24.115Z,17.09
2019-05-18T22:20:45.431Z,17.32
2019-05-18T22:23:15.873Z,17.74
2019-05-18T22:25:46.236Z,17.75
2019-05-18T22:28:16.544Z,17.55
2019-05-18T22:30:47.420Z,17.51
2019-05-18T22:33:18.149Z,17.93
2019-05-18T22:35:48.541Z,18.06
2019-05-18T22:38:19.403Z,17.33
2019-05-18T22:40:49.776Z,17.33
2019-05-18T22:43:20.505Z,17.62
2019-05-18T22:45:51.040Z,17.53
2019-05-18T22:48:21.338Z,16.49
2019-05-18T22:50:52.073Z,16.49
2019-05-18T22:53:22.513Z,16.49
2019-05-18T22:55:52.942Z,16.56
2019-05-18T22:58:23.610Z,16.63
2019-05-18T23:00:54.350Z,16.66
2019-05-18T23:03:24.714Z,16.59
2019-05-18T23:05:55.212Z,16.66
2019-05-18T23:08:25.882Z,16.55
2019-05-18T23:10:56.187Z,16.31
2019-05-18T23:13:28.299Z,16.37
2019-05-18T23:15:58.646Z,16.58
2019-05-18T23:18:29.088Z,16.44
2019-05-18T23:20:59.543Z,16.22
2019-05-18T23:23:29.913Z,16.15
2019-05-18T23:26:00.400Z,16.34
2019-05-18T23:28:31.098Z,16.08
2019-05-18T23:31:01.498Z,16.07
2019-05-18T23:33:31.858Z,15.65
2019-05-18T23:36:02.485Z,15.90
2019-05-18T23:38:32.865Z,16.10
2019-05-18T23:41:03.231Z,15.93
2019-05-18T23:43:33.935Z,15.74
2019-05-18T23:46:04.331Z,15.71
2019-05-18T23:48:34.642Z,15.38
2019-05-18T23:51:05.465Z,15.24
2019-05-18T23:53:35.884Z,15.25
2019-05-18T23:56:07.276Z,15.22
2019-05-18T23:58:37.962Z,15.51
